Time;durP1;ratioP1;P1;durP2;ratioP2;P2;SDS_P1;SDS_P2;PMS_P1;PMS_P2;Temp;Humidity;BMP_temperature;BMP_pressure;BME280_temperature;BME280_humidity;BME280_pressure;Samples;Min_cycle;Max_cycle;Signal;HPM_P1;HPM_P2
2023/06/20 00:01:01;;;;;;;7.38;5.90;;;20.20;99.90;;;;;;4976312;28;20291;-84
2023/06/20 00:03:28;;;;;;;7.93;5.95;;;20.20;99.90;;;;;;4976307;28;20200;-85
2023/06/20 00:05:55;;;;;;;8.38;5.78;;;20.20;99.90;;;;;;4975474;28;20203;-81
2023/06/20 00:08:23;;;;;;;6.50;5.15;;;20.30;99.90;;;;;;4976261;28;20204;-80
2023/06/20 00:10:50;;;;;;;7.72;5.60;;;20.20;99.90;;;;;;4988156;28;20208;-83
2023/06/20 00:13:18;;;;;;;6.50;5.70;;;20.30;99.90;;;;;;4996312;28;20196;-85
2023/06/20 00:15:45;;;;;;;8.15;6.47;;;20.30;99.90;;;;;;4996426;28;20220;-81
2023/06/20 00:18:12;;;;;;;5.82;5.22;;;20.30;99.90;;;;;;4978543;28;20295;-80
2023/06/20 00:20:38;;;;;;;5.68;5.18;;;20.30;99.90;;;;;;4976226;28;20231;-82
2023/06/20 00:23:06;;;;;;;5.55;4.90;;;20.30;99.90;;;;;;4975954;28;20213;-81
2023/06/20 00:25:34;;;;;;;6.22;5.63;;;20.30;99.90;;;;;;4975929;28;20229;-81
2023/06/20 00:28:02;;;;;;;6.10;5.30;;;20.30;99.90;;;;;;4975363;28;20209;-81
2023/06/20 00:30:29;;;;;;;7.95;6.57;;;20.30;99.90;;;;;;4995315;28;20450;-81
2023/06/20 00:32:58;;;;;;;7.28;6.40;;;20.30;99.90;;;;;;4995453;28;20196;-80
2023/06/20 00:35:25;;;;;;;7.30;6.60;;;20.30;99.90;;;;;;4994202;28;20277;-79
2023/06/20 00:37:52;;;;;;;6.22;5.63;;;20.30;99.90;;;;;;4993946;28;20204;-81
2023/06/20 00:40:19;;;;;;;5.95;5.18;;;20.30;99.90;;;;;;4995120;28;20278;-82
2023/06/20 00:42:47;;;;;;;7.20;5.97;;;20.30;99.90;;;;;;4993030;28;20283;-80
2023/06/20 00:45:30;;;;;;;6.03;5.47;;;20.30;99.90;;;;;;4975593;28;20232;-80
2023/06/20 00:47:58;;;;;;;6.20;5.60;;;20.30;99.90;;;;;;4974796;28;20236;-82
2023/06/20 00:50:27;;;;;;;7.32;6.63;;;20.30;99.90;;;;;;4984126;28;20324;-79
2023/06/20 00:52:59;;;;;;;7.13;6.43;;;20.30;99.90;;;;;;4994930;28;20200;-79
2023/06/20 00:55:27;;;;;;;7.57;6.20;;;20.40;99.90;;;;;;4977939;28;20770;-81
2023/06/20 00:57:58;;;;;;;6.30;5.70;;;20.30;99.90;;;;;;4974875;28;20283;-81
2023/06/20 01:00:25;;;;;;;7.15;6.35;;;20.30;99.90;;;;;;4975335;28;20939;-81
2023/06/20 01:02:55;;;;;;;6.63;6.00;;;20.30;99.90;;;;;;4974918;28;20207;-80
2023/06/20 01:05:26;;;;;;;7.95;6.28;;;20.30;99.90;;;;;;4975026;28;20544;-83
2023/06/20 01:07:59;;;;;;;8.73;6.97;;;20.30;99.90;;;;;;4975215;28;20205;-82
2023/06/20 01:10:38;;;;;;;8.55;7.13;;;20.30;99.90;;;;;;4974561;28;20284;-81
2023/06/20 01:13:15;;;;;;;10.75;7.13;;;20.30;99.90;;;;;;4992201;28;20227;-81
2023/06/20 01:15:48;;;;;;;6.65;6.05;;;20.30;99.90;;;;;;4994702;28;20270;-80
2023/06/20 01:18:26;;;;;;;7.93;7.13;;;20.30;99.90;;;;;;4994701;28;20283;-78
2023/06/20 01:20:59;;;;;;;8.15;7.28;;;20.30;99.90;;;;;;4978573;28;20216;-83
2023/06/20 01:23:33;;;;;;;8.30;6.32;;;20.30;99.90;;;;;;4974683;28;20215;-80
2023/06/20 01:26:04;;;;;;;6.75;6.05;;;20.30;99.90;;;;;;4975557;28;20218;-81
2023/06/20 01:28:41;;;;;;;5.90;5.35;;;20.30;99.90;;;;;;4975083;28;20185;-81
2023/06/20 01:31:11;;;;;;;10.23;7.13;;;20.30;99.90;;;;;;4974845;28;20204;-81
2023/06/20 01:33:47;;;;;;;8.40;7.50;;;20.30;99.90;;;;;;4975398;28;20192;-84
2023/06/20 01:36:18;;;;;;;10.15;7.45;;;20.30;99.90;;;;;;4974710;28;20252;-80
2023/06/20 01:38:49;;;;;;;7.90;6.68;;;20.40;99.90;;;;;;4974476;28;20211;-81
2023/06/20 01:41:20;;;;;;;7.53;6.75;;;20.30;99.90;;;;;;4974946;28;20536;-80
2023/06/20 01:43:49;;;;;;;8.10;7.20;;;20.30;99.90;;;;;;4974646;28;20282;-79
2023/06/20 01:46:17;;;;;;;7.20;6.50;;;20.30;99.90;;;;;;4974822;28;20203;-82
2023/06/20 01:48:46;;;;;;;7.15;6.45;;;20.30;99.90;;;;;;4974444;28;20208;-82
2023/06/20 01:51:15;;;;;;;6.97;6.28;;;20.30;99.90;;;;;;4974593;28;20238;-80
2023/06/20 01:53:43;;;;;;;7.20;6.43;;;20.30;99.90;;;;;;4974882;28;20200;-83
2023/06/20 01:56:13;;;;;;;8.80;6.40;;;20.30;99.90;;;;;;4993157;28;20220;-82
2023/06/20 01:58:41;;;;;;;10.40;7.80;;;20.30;99.90;;;;;;4993688;28;20200;-82
2023/06/20 02:01:09;;;;;;;7.43;6.43;;;20.40;99.90;;;;;;4979661;28;20211;-80
2023/06/20 02:03:36;;;;;;;6.88;6.18;;;20.30;99.90;;;;;;4974590;28;20593;-82
2023/06/20 02:06:04;;;;;;;6.97;5.75;;;20.40;99.90;;;;;;4974632;28;20552;-80
2023/06/20 02:08:32;;;;;;;7.63;6.10;;;20.30;99.90;;;;;;4974029;28;20207;-82
2023/06/20 02:11:01;;;;;;;9.48;6.93;;;20.30;99.90;;;;;;4974924;28;20256;-82
2023/06/20 02:13:29;;;;;;;8.02;7.10;;;20.30;99.90;;;;;;4974197;28;20214;-82
2023/06/20 02:15:58;;;;;;;8.40;6.18;;;20.30;99.90;;;;;;4984361;28;20646;-84
2023/06/20 02:18:31;;;;;;;10.35;6.90;;;20.40;99.90;;;;;;4993634;28;20279;-80
2023/06/20 02:21:04;;;;;;;7.32;6.57;;;20.30;99.90;;;;;;4985432;28;20205;-81
2023/06/20 02:23:32;;;;;;;8.85;6.70;;;20.30;99.90;;;;;;4973914;28;20192;-82
2023/06/20 02:26:07;;;;;;;7.25;6.22;;;20.40;99.90;;;;;;4973766;28;20299;-83
2023/06/20 02:28:37;;;;;;;8.52;6.88;;;20.30;99.90;;;;;;4973691;28;20615;-82
2023/06/20 02:31:07;;;;;;;8.95;6.75;;;20.40;99.90;;;;;;4973865;28;20534;-84
2023/06/20 02:33:35;;;;;;;8.35;6.85;;;20.40;99.90;;;;;;4973830;28;20505;-84
2023/06/20 02:36:03;;;;;;;7.82;6.63;;;20.40;99.90;;;;;;4973798;28;20336;-83
2023/06/20 02:38:31;;;;;;;7.32;6.13;;;20.30;99.90;;;;;;4974532;28;20271;-85
2023/06/20 02:40:58;;;;;;;7.82;6.88;;;20.30;99.90;;;;;;4973767;28;20200;-84
2023/06/20 02:43:25;;;;;;;8.32;7.32;;;20.30;99.90;;;;;;4974085;28;20517;-83
2023/06/20 02:46:04;;;;;;;9.70;7.47;;;20.30;99.90;;;;;;4973402;28;20232;-81
2023/06/20 02:48:43;;;;;;;8.32;7.10;;;20.30;99.90;;;;;;4973643;28;20571;-83
2023/06/20 02:51:16;;;;;;;7.40;6.57;;;20.30;99.90;;;;;;4974393;28;20271;-84
2023/06/20 02:53:50;;;;;;;9.50;8.50;;;20.30;99.90;;;;;;4974909;28;20207;-85
2023/06/20 02:56:17;;;;;;;7.93;7.13;;;20.30;99.90;;;;;;4974557;28;20256;-85
2023/06/20 02:58:50;;;;;;;7.93;6.80;;;20.30;99.90;;;;;;4987992;28;20208;-84
2023/06/20 03:01:23;;;;;;;9.43;7.32;;;20.30;99.90;;;;;;4994254;28;20203;-84
2023/06/20 03:03:52;;;;;;;8.30;7.43;;;20.20;99.90;;;;;;4993948;28;20301;-83
2023/06/20 03:06:28;;;;;;;8.20;7.13;;;20.20;99.90;;;;;;4994266;28;20236;-86
2023/06/20 03:08:57;;;;;;;10.77;6.70;;;20.20;99.90;;;;;;4992469;28;20273;-84
2023/06/20 03:11:24;;;;;;;7.68;6.85;;;20.20;99.90;;;;;;4975371;28;20283;-86
2023/06/20 03:13:51;;;;;;;7.82;7.03;;;20.10;99.90;;;;;;4974671;28;20287;-83
2023/06/20 03:16:19;;;;;;;7.55;6.68;;;20.20;99.90;;;;;;4987804;28;20323;-85
2023/06/20 03:18:47;;;;;;;9.95;7.55;;;20.10;99.90;;;;;;4993885;28;20287;-82
2023/06/20 03:21:14;;;;;;;8.50;6.18;;;20.10;99.90;;;;;;4996536;28;20215;-82
2023/06/20 03:23:41;;;;;;;6.60;5.85;;;20.10;99.90;;;;;;4997211;28;20238;-84
2023/06/20 03:26:08;;;;;;;8.85;7.57;;;20.10;99.90;;;;;;4997229;28;20200;-82
2023/06/20 03:28:34;;;;;;;8.77;7.22;;;20.10;99.90;;;;;;4986542;28;20300;-84
2023/06/20 03:31:01;;;;;;;9.23;6.40;;;20.10;99.90;;;;;;4977881;28;20200;-83
2023/06/20 03:33:30;;;;;;;8.88;7.20;;;20.10;99.90;;;;;;4977857;28;20197;-83
2023/06/20 03:35:57;;;;;;;7.15;6.45;;;20.00;99.90;;;;;;4977458;28;20793;-85
2023/06/20 03:38:24;;;;;;;9.38;7.72;;;20.00;99.90;;;;;;4977511;28;20223;-85
2023/06/20 03:40:51;;;;;;;6.60;6.00;;;20.00;99.90;;;;;;4977946;28;20611;-84
2023/06/20 03:43:19;;;;;;;7.60;6.85;;;20.00;99.90;;;;;;4978348;28;20272;-83
2023/06/20 03:45:45;;;;;;;8.48;7.18;;;20.00;99.90;;;;;;4977554;28;20219;-81
2023/06/20 03:48:13;;;;;;;7.75;6.20;;;20.00;99.90;;;;;;4977482;28;20314;-84
2023/06/20 03:50:41;;;;;;;8.88;7.20;;;20.00;99.90;;;;;;4977169;28;20233;-83
2023/06/20 03:53:08;;;;;;;9.98;7.53;;;19.90;99.90;;;;;;4977988;28;20203;-83
2023/06/20 03:55:34;;;;;;;8.52;7.00;;;20.00;99.90;;;;;;4977862;28;20220;-85
2023/06/20 03:58:01;;;;;;;9.85;7.70;;;20.00;99.90;;;;;;4976810;28;20311;-83
2023/06/20 04:00:28;;;;;;;8.13;7.32;;;20.00;99.90;;;;;;4977609;28;20556;-83
2023/06/20 04:02:55;;;;;;;8.00;7.30;;;20.00;99.90;;;;;;4977962;28;20279;-84
2023/06/20 04:05:23;;;;;;;8.30;6.43;;;20.00;99.90;;;;;;4976801;28;20201;-84
2023/06/20 04:07:51;;;;;;;10.38;7.10;;;20.00;99.90;;;;;;4976819;28;20208;-85
2023/06/20 04:10:18;;;;;;;7.75;6.95;;;20.00;99.90;;;;;;4977374;28;20503;-84
2023/06/20 04:12:45;;;;;;;12.23;7.65;;;20.00;99.90;;;;;;4977052;28;20284;-84
2023/06/20 04:15:12;;;;;;;7.43;6.63;;;20.00;99.90;;;;;;4977150;28;20197;-82
2023/06/20 04:17:40;;;;;;;8.50;7.70;;;20.00;99.90;;;;;;4976961;28;20598;-84
2023/06/20 04:20:12;;;;;;;8.35;7.47;;;20.10;99.90;;;;;;4976232;28;20200;-84
2023/06/20 04:22:42;;;;;;;7.72;7.03;;;20.10;99.90;;;;;;4988164;28;20208;-83
2023/06/20 04:25:10;;;;;;;10.65;7.70;;;20.10;99.90;;;;;;4996008;28;20227;-83
2023/06/20 04:27:37;;;;;;;9.00;8.13;;;20.10;99.90;;;;;;4995659;28;20488;-81
2023/06/20 04:30:06;;;;;;;10.80;7.78;;;20.10;99.90;;;;;;4977599;28;20262;-79
2023/06/20 04:32:33;;;;;;;9.52;7.80;;;20.10;99.90;;;;;;4975819;28;20212;-80
2023/06/20 04:35:00;;;;;;;8.98;7.30;;;20.10;99.90;;;;;;4975995;28;20684;-81
2023/06/20 04:37:29;;;;;;;8.02;7.22;;;20.20;99.90;;;;;;4975970;28;20296;-82
2023/06/20 04:39:56;;;;;;;8.38;7.55;;;20.20;99.90;;;;;;4975248;28;20607;-83
2023/06/20 04:42:24;;;;;;;7.22;6.53;;;20.20;99.90;;;;;;4976002;28;20235;-82
2023/06/20 04:44:51;;;;;;;9.18;7.88;;;20.20;99.90;;;;;;4991873;28;20200;-83
2023/06/20 04:47:18;;;;;;;9.05;7.75;;;20.30;99.90;;;;;;4994910;28;20290;-84
2023/06/20 04:49:46;;;;;;;8.43;7.55;;;20.20;99.90;;;;;;4995239;28;20208;-83
2023/06/20 04:52:13;;;;;;;8.57;7.78;;;20.20;99.90;;;;;;4995942;28;20199;-84
2023/06/20 04:54:42;;;;;;;9.43;8.27;;;20.20;99.90;;;;;;4980989;28;20327;-83
2023/06/20 04:57:09;;;;;;;10.90;8.60;;;20.20;99.90;;;;;;4976330;28;20255;-82
2023/06/20 04:59:38;;;;;;;8.48;7.68;;;20.20;99.90;;;;;;4976130;28;20203;-85
2023/06/20 05:02:06;;;;;;;8.63;7.80;;;20.30;99.90;;;;;;4975701;28;20224;-85
2023/06/20 05:04:33;;;;;;;8.55;7.75;;;20.30;99.90;;;;;;4978301;28;20204;-82
2023/06/20 05:07:01;;;;;;;9.20;8.18;;;20.30;99.90;;;;;;4995588;28;20287;-82
2023/06/20 05:09:28;;;;;;;9.77;8.20;;;20.40;99.90;;;;;;4991639;28;20604;-86
2023/06/20 05:11:55;;;;;;;8.43;7.53;;;20.40;99.90;;;;;;4976224;28;20204;-83
2023/06/20 05:14:22;;;;;;;8.93;8.02;;;20.50;99.90;;;;;;4976337;28;20211;-85
2023/06/20 05:16:50;;;;;;;10.80;9.07;;;20.50;99.90;;;;;;4975327;28;20531;-83
2023/06/20 05:19:17;;;;;;;10.23;8.68;;;20.50;99.90;;;;;;4994434;28;20208;-83
2023/06/20 05:21:44;;;;;;;10.82;8.75;;;20.60;99.90;;;;;;4995001;28;20282;-86
2023/06/20 05:24:11;;;;;;;9.95;8.57;;;20.60;99.90;;;;;;4994040;28;20302;-86
2023/06/20 05:26:38;;;;;;;9.10;8.20;;;20.70;99.90;;;;;;4975405;28;20208;-81
2023/06/20 05:29:05;;;;;;;9.73;8.73;;;20.70;99.90;;;;;;4975194;28;20243;-83
2023/06/20 05:31:32;;;;;;;10.88;8.93;;;20.80;99.90;;;;;;4975090;28;20239;-82
2023/06/20 05:34:00;;;;;;;13.18;8.98;;;20.90;99.90;;;;;;4975029;28;20287;-84
2023/06/20 05:36:27;;;;;;;10.85;9.75;;;21.20;99.90;;;;;;4974256;28;20220;-83
2023/06/20 05:38:56;;;;;;;8.63;7.72;;;21.60;99.90;;;;;;4998405;23;20238;-82
2023/06/20 05:41:23;;;;;;;9.27;8.25;;;21.80;99.90;;;;;;5034877;28;20206;-83
2023/06/20 05:43:50;;;;;;;12.65;9.32;;;22.00;99.90;;;;;;5032696;28;20201;-81
2023/06/20 05:46:17;;;;;;;9.05;7.97;;;22.40;99.90;;;;;;5022145;28;20203;-87
2023/06/20 05:48:44;;;;;;;10.07;8.98;;;22.70;99.90;;;;;;5014094;28;20589;-85
2023/06/20 05:51:14;;;;;;;8.07;7.28;;;23.00;99.90;;;;;;5013569;28;20207;-83
2023/06/20 05:53:41;;;;;;;9.55;8.65;;;23.40;99.90;;;;;;5017430;28;20206;-83
2023/06/20 05:56:09;;;;;;;9.10;7.72;;;23.80;99.90;;;;;;5033578;28;20526;-84
2023/06/20 05:58:36;;;;;;;7.70;7.00;;;23.90;99.90;;;;;;5032455;28;20591;-86
2023/06/20 06:01:03;;;;;;;9.25;7.88;;;24.30;99.90;;;;;;5027935;28;20202;-85
2023/06/20 06:03:31;;;;;;;12.00;9.13;;;24.70;99.90;;;;;;5020407;28;20257;-87
2023/06/20 06:05:58;;;;;;;10.52;8.40;;;24.80;99.90;;;;;;5014385;28;20207;-88
2023/06/20 06:08:26;;;;;;;7.53;6.90;;;25.00;99.90;;;;;;5015490;28;20203;-85
2023/06/20 06:10:53;;;;;;;10.65;8.55;;;25.10;99.90;;;;;;5015219;28;20194;-87
2023/06/20 06:13:20;;;;;;;9.93;7.97;;;25.30;99.90;;;;;;5015113;28;20253;-87
2023/06/20 06:15:47;;;;;;;7.97;7.15;;;25.10;99.90;;;;;;5013866;28;20294;-87
2023/06/20 06:18:14;;;;;;;10.00;7.90;;;25.20;99.90;;;;;;5014192;28;20233;-88
2023/06/20 06:20:43;;;;;;;9.52;8.52;;;25.30;99.90;;;;;;5014072;28;20200;-86
2023/06/20 06:23:10;;;;;;;8.70;7.90;;;25.50;99.90;;;;;;4997878;28;20199;-88
2023/06/20 06:25:38;;;;;;;9.43;8.50;;;25.70;99.90;;;;;;5013860;28;20207;-87
2023/06/20 06:28:05;;;;;;;10.32;8.93;;;25.80;99.90;;;;;;5027559;28;20509;-87
2023/06/20 06:30:33;;;;;;;10.90;8.52;;;26.00;99.90;;;;;;5028019;28;20765;-87
2023/06/20 06:33:01;;;;;;;9.35;7.63;;;26.00;99.90;;;;;;5014305;28;20799;-88
2023/06/20 06:35:30;;;;;;;8.70;7.90;;;26.20;99.90;;;;;;5014777;28;20283;-86
2023/06/20 06:37:58;;;;;;;9.90;8.25;;;26.40;99.90;;;;;;5014356;28;20225;-84
2023/06/20 06:40:25;;;;;;;7.88;7.18;;;26.50;99.90;;;;;;5014350;28;20270;-86
2023/06/20 06:42:54;;;;;;;9.65;8.35;;;26.80;99.90;;;;;;5014487;28;20217;-87
2023/06/20 06:45:21;;;;;;;8.73;7.93;;;26.90;99.90;;;;;;5016977;28;20270;-91
2023/06/20 06:47:48;;;;;;;8.55;7.65;;;26.90;99.90;;;;;;5023243;28;20198;-85
2023/06/20 06:50:15;;;;;;;12.43;8.90;;;26.80;99.90;;;;;;5014198;28;20638;-87
2023/06/20 06:52:42;;;;;;;12.48;9.13;;;26.60;99.90;;;;;;5014275;28;20210;-88
2023/06/20 06:55:09;;;;;;;9.57;8.68;;;26.50;99.90;;;;;;5015788;28;20207;-88
2023/06/20 06:57:36;;;;;;;8.48;7.68;;;26.40;99.90;;;;;;5025451;28;20305;-85
2023/06/20 07:00:11;;;;;;;8.95;8.15;;;26.50;99.90;;;;;;5037218;28;20501;-87
2023/06/20 07:02:39;;;;;;;9.90;8.95;;;26.50;99.90;;;;;;5037496;28;20212;-84
2023/06/20 07:05:07;;;;;;;11.63;10.40;;;26.40;99.90;;;;;;5024180;28;20614;-86
2023/06/20 07:07:34;;;;;;;9.40;8.57;;;26.40;99.90;;;;;;5023976;28;20202;-87
2023/06/20 07:10:01;;;;;;;9.27;8.35;;;26.40;99.90;;;;;;5037701;28;20397;-87
2023/06/20 07:12:28;;;;;;;9.63;8.63;;;26.20;99.90;;;;;;5037647;28;20199;-85
2023/06/20 07:14:56;;;;;;;11.65;9.75;;;26.20;99.90;;;;;;5037606;28;20203;-87
2023/06/20 07:17:24;;;;;;;10.65;9.50;;;26.30;99.90;;;;;;5037239;28;20233;-88
2023/06/20 07:19:52;;;;;;;11.50;9.85;;;26.30;99.90;;;;;;5037982;28;20560;-84
2023/06/20 07:22:19;;;;;;;9.57;8.68;;;26.30;99.90;;;;;;5037552;28;20213;-84
2023/06/20 07:24:46;;;;;;;8.93;8.02;;;26.20;99.90;;;;;;5037188;28;20244;-85
2023/06/20 07:27:12;;;;;;;11.55;9.90;;;26.40;99.90;;;;;;5034655;28;20206;-89
2023/06/20 07:29:41;;;;;;;8.77;7.97;;;26.50;99.90;;;;;;5037209;28;20206;-86
2023/06/20 07:32:08;;;;;;;10.38;8.65;;;26.50;99.90;;;;;;5037353;28;20702;-85
2023/06/20 07:34:37;;;;;;;8.90;8.00;;;26.50;99.90;;;;;;5037102;28;20314;-86
2023/06/20 07:37:05;;;;;;;10.13;9.13;;;26.50;99.90;;;;;;5036752;28;20248;-85
2023/06/20 07:39:32;;;;;;;9.15;8.25;;;26.50;99.90;;;;;;5038444;28;20317;-82
2023/06/20 07:41:58;;;;;;;10.05;9.15;;;26.50;99.90;;;;;;5038865;28;20198;-82
2023/06/20 07:44:25;;;;;;;9.52;8.55;;;26.70;99.90;;;;;;5038668;28;20604;-87
2023/06/20 07:46:53;;;;;;;13.40;9.95;;;27.00;99.90;;;;;;4999357;28;20321;-83
2023/06/20 07:49:20;;;;;;;10.85;9.30;;;27.30;99.90;;;;;;4999545;28;20192;-89
2023/06/20 07:51:48;;;;;;;9.60;8.70;;;27.50;99.90;;;;;;4999587;28;20364;-88
2023/06/20 07:54:15;;;;;;;9.35;8.52;;;27.80;99.90;;;;;;4999291;28;20611;-90
2023/06/20 07:56:42;;;;;;;10.27;9.35;;;28.10;99.90;;;;;;4999606;28;20204;-86
2023/06/20 07:59:09;;;;;;;10.68;9.55;;;28.10;99.90;;;;;;4998612;28;20250;-84
2023/06/20 08:01:36;;;;;;;9.60;7.97;;;28.30;99.90;;;;;;4998994;28;20296;-87
2023/06/20 08:04:02;;;;;;;10.20;9.20;;;28.60;99.90;;;;;;5012133;28;20537;-87
2023/06/20 08:06:29;;;;;;;10.52;8.75;;;28.70;99.90;;;;;;5018510;28;20243;-88
2023/06/20 08:08:58;;;;;;;9.93;8.52;;;28.70;99.90;;;;;;5019394;28;20291;-94
2023/06/20 08:11:25;;;;;;;12.32;8.98;;;29.00;99.90;;;;;;5018994;28;20290;-92
2023/06/20 08:13:52;;;;;;;11.88;10.55;;;29.20;99.90;;;;;;5019404;28;20282;-90
2023/06/20 08:16:20;;;;;;;9.82;8.85;;;29.30;99.90;;;;;;5019575;28;20207;-91
2023/06/20 08:18:47;;;;;;;9.85;8.85;;;29.50;99.90;;;;;;5018769;28;20234;-86
2023/06/20 08:21:13;;;;;;;9.43;8.60;;;29.80;99.90;;;;;;5017506;28;20286;-90
2023/06/20 08:23:40;;;;;;;13.80;10.38;;;30.00;99.90;;;;;;5013106;28;20311;-88
2023/06/20 08:26:10;;;;;;;9.88;8.88;;;29.90;99.90;;;;;;4999364;28;20287;-89
2023/06/20 08:28:37;;;;;;;10.63;9.63;;;29.70;99.90;;;;;;4998466;28;20522;-87
2023/06/20 08:31:04;;;;;;;14.60;10.63;;;29.70;99.90;;;;;;5007139;28;20206;-89
2023/06/20 08:33:31;;;;;;;8.82;8.02;;;29.70;99.90;;;;;;5018541;28;20480;-89
2023/06/20 08:35:58;;;;;;;11.50;8.88;;;29.90;99.90;;;;;;5017797;28;20215;-87
2023/06/20 08:38:26;;;;;;;10.43;9.45;;;30.20;99.90;;;;;;5023285;23;20536;-85
2023/06/20 08:40:53;;;;;;;8.27;7.57;;;30.50;99.90;;;;;;5017525;28;20205;-87
2023/06/20 08:43:21;;;;;;;8.68;7.78;;;30.80;99.90;;;;;;5008648;28;20222;-88
2023/06/20 08:45:48;;;;;;;11.73;10.38;;;31.00;99.90;;;;;;4995422;28;20287;-86
2023/06/20 08:48:15;;;;;;;9.10;8.20;;;31.20;99.90;;;;;;4995979;28;20278;-88
2023/06/20 08:50:47;;;;;;;10.48;9.48;;;31.40;99.90;;;;;;4996263;28;20596;-86
2023/06/20 08:53:16;;;;;;;9.15;8.25;;;31.60;99.90;;;;;;4994431;28;20291;-92
2023/06/20 08:55:45;;;;;;;8.65;7.85;;;31.70;99.90;;;;;;4996026;28;20224;-87
2023/06/20 08:58:12;;;;;;;9.05;8.25;;;32.00;99.90;;;;;;5009996;28;20635;-90
2023/06/20 09:00:41;;;;;;;10.93;9.90;;;32.20;99.90;;;;;;5015198;28;20192;-88
2023/06/20 09:03:08;;;;;;;11.07;10.05;;;32.30;99.90;;;;;;5015550;28;20210;-92
2023/06/20 09:05:45;;;;;;;9.82;8.48;;;32.30;99.90;;;;;;5016405;28;20225;-92
2023/06/20 09:08:13;;;;;;;9.95;8.57;;;32.20;99.90;;;;;;5015604;28;20225;-88
2023/06/20 09:10:40;;;;;;;11.32;9.82;;;31.90;99.90;;;;;;5016103;28;20600;-89
2023/06/20 09:13:08;;;;;;;13.35;10.23;;;32.00;99.90;;;;;;5015865;28;20207;-87
2023/06/20 09:15:36;;;;;;;11.02;9.93;;;32.10;99.90;;;;;;5014886;28;20211;-88
2023/06/20 09:18:06;;;;;;;11.45;10.45;;;32.20;99.90;;;;;;5015009;28;20309;-92
2023/06/20 09:20:33;;;;;;;9.75;8.75;;;32.20;99.90;;;;;;5015469;28;20199;-89
2023/06/20 09:23:01;;;;;;;9.15;8.20;;;32.20;99.90;;;;;;5015575;28;20291;-90
2023/06/20 09:25:29;;;;;;;9.07;8.20;;;32.40;99.90;;;;;;5014849;28;20306;-88
2023/06/20 09:27:57;;;;;;;9.40;7.88;;;32.70;99.90;;;;;;5015281;28;20203;-90
2023/06/20 09:30:28;;;;;;;11.77;8.45;;;32.80;99.90;;;;;;5014599;28;20223;-87
2023/06/20 09:32:55;;;;;;;10.43;8.85;;;33.00;99.90;;;;;;4995636;28;20250;-90
2023/06/20 09:35:24;;;;;;;8.43;7.72;;;33.20;99.90;;;;;;4995558;28;20287;-89
2023/06/20 09:37:53;;;;;;;9.32;8.45;;;33.10;99.90;;;;;;4995991;28;20253;-93
2023/06/20 09:40:21;;;;;;;11.05;10.15;;;33.30;99.90;;;;;;4996213;28;20200;-87
2023/06/20 09:42:48;;;;;;;10.75;9.52;;;33.40;99.90;;;;;;5014212;28;20235;-90
2023/06/20 09:45:17;;;;;;;8.55;7.75;;;33.50;99.90;;;;;;4995406;28;20675;-90
2023/06/20 09:47:45;;;;;;;10.57;9.68;;;33.30;99.90;;;;;;4995090;28;20204;-89
2023/06/20 09:50:16;;;;;;;10.88;9.85;;;33.40;99.90;;;;;;4995042;28;20206;-91
2023/06/20 09:52:47;;;;;;;10.80;9.68;;;33.50;99.90;;;;;;5004073;28;20204;-93
2023/06/20 09:55:15;;;;;;;13.00;11.80;;;33.70;99.90;;;;;;4995407;28;20203;-89
2023/06/20 09:57:43;;;;;;;11.60;10.45;;;33.60;99.90;;;;;;4995124;28;20282;-87
2023/06/20 10:00:14;;;;;;;11.50;10.40;;;33.40;99.90;;;;;;4995417;28;20266;-85
2023/06/20 10:02:43;;;;;;;10.00;9.00;;;33.30;99.90;;;;;;4995651;28;20199;-88
2023/06/20 10:05:15;;;;;;;10.95;9.82;;;33.30;99.90;;;;;;4995307;28;20205;-91
2023/06/20 10:07:45;;;;;;;14.30;13.00;;;33.40;99.90;;;;;;4995869;28;20199;-90
2023/06/20 10:10:12;;;;;;;11.65;10.45;;;33.50;99.90;;;;;;4996034;28;20208;-91
2023/06/20 10:12:40;;;;;;;11.82;10.73;;;33.40;99.90;;;;;;4995160;28;20286;-91
2023/06/20 10:15:09;;;;;;;13.70;12.48;;;33.30;99.90;;;;;;4994793;28;20550;-88
2023/06/20 10:17:39;;;;;;;12.27;11.10;;;33.30;99.90;;;;;;4994987;28;20287;-90
2023/06/20 10:20:08;;;;;;;10.50;9.50;;;33.20;99.90;;;;;;4995078;28;20227;-90
2023/06/20 10:22:37;;;;;;;11.15;10.18;;;33.30;99.90;;;;;;4994820;28;20200;-94
2023/06/20 10:25:14;;;;;;;13.55;12.25;;;33.10;99.90;;;;;;4995641;28;20302;-94
2023/06/20 10:27:42;;;;;;;12.65;11.27;;;32.90;99.90;;;;;;4995140;28;20208;-93
2023/06/20 10:30:11;;;;;;;11.80;10.13;;;33.10;99.90;;;;;;5006311;28;20205;-88
2023/06/20 10:32:54;;;;;;;13.10;11.77;;;33.40;99.90;;;;;;5014716;28;20291;-86
2023/06/20 10:35:24;;;;;;;12.57;11.38;;;33.40;99.90;;;;;;5014553;28;20213;-94
2023/06/20 10:37:51;;;;;;;15.55;11.90;;;33.50;99.90;;;;;;5008394;28;20240;-89
2023/06/20 10:40:30;;;;;;;15.15;11.43;;;33.50;99.90;;;;;;4994858;28;20227;-92
2023/06/20 10:42:57;;;;;;;10.25;9.13;;;33.90;99.90;;;;;;4995130;28;20585;-87
2023/06/20 10:45:27;;;;;;;15.23;13.82;;;34.00;99.90;;;;;;4994747;28;20279;-89
2023/06/20 10:47:54;;;;;;;15.45;13.48;;;34.00;99.90;;;;;;5007628;28;20215;-92
2023/06/20 10:50:22;;;;;;;13.07;11.50;;;33.70;99.90;;;;;;5011559;28;20199;-90
2023/06/20 10:52:49;;;;;;;14.90;13.35;;;33.60;99.90;;;;;;5011872;28;20199;-95
2023/06/20 10:55:17;;;;;;;10.85;9.38;;;33.80;99.90;;;;;;5013597;28;20266;-91
2023/06/20 10:57:47;;;;;;;9.65;8.65;;;34.00;99.90;;;;;;5000933;28;20291;-90
2023/06/20 11:00:17;;;;;;;10.95;7.30;;;34.10;99.90;;;;;;4999007;28;20522;-90
2023/06/20 11:02:45;;;;;;;7.68;6.97;;;34.30;99.90;;;;;;5007929;28;20210;-91
2023/06/20 11:05:12;;;;;;;8.63;7.70;;;34.60;99.90;;;;;;4994257;28;20254;-93
2023/06/20 11:07:56;;;;;;;9.55;8.63;;;34.50;99.90;;;;;;4994936;28;20227;-89
2023/06/20 11:10:27;;;;;;;8.82;8.02;;;34.40;99.90;;;;;;4992156;28;20234;-88
2023/06/20 11:12:56;;;;;;;11.10;10.02;;;34.10;99.90;;;;;;4992678;28;20208;-92
2023/06/20 11:15:28;;;;;;;12.00;10.70;;;34.10;99.90;;;;;;4981828;23;20327;-93
2023/06/20 11:17:56;;;;;;;9.50;8.60;;;33.80;99.90;;;;;;4974638;28;20236;-90
2023/06/20 11:20:24;;;;;;;8.82;8.02;;;33.80;99.90;;;;;;4975227;28;20260;-93
2023/06/20 11:22:53;;;;;;;11.30;10.23;;;33.80;99.90;;;;;;4975587;28;20205;-87
2023/06/20 11:25:28;;;;;;;11.05;10.10;;;34.20;99.90;;;;;;4974848;28;20252;-87
2023/06/20 11:28:04;;;;;;;8.90;8.10;;;34.20;99.90;;;;;;4966554;28;20236;-86
2023/06/20 11:30:32;;;;;;;10.93;9.35;;;34.60;99.90;;;;;;4955624;29;20189;-91
2023/06/20 11:33:08;;;;;;;10.85;9.80;;;34.80;99.90;;;;;;4955766;29;20284;-90
2023/06/20 11:35:46;;;;;;;10.63;8.77;;;34.80;99.90;;;;;;4970340;28;20593;-89
2023/06/20 11:38:15;;;;;;;9.70;8.80;;;34.90;99.90;;;;;;4974896;28;20211;-92
2023/06/20 11:40:43;;;;;;;10.20;8.52;;;34.60;99.90;;;;;;4972437;28;20205;-91
2023/06/20 11:43:22;;;;;;;10.38;9.38;;;34.50;99.90;;;;;;4959385;29;20229;-88
2023/06/20 11:45:49;;;;;;;9.95;9.05;;;34.40;99.90;;;;;;4965173;28;20211;-90
2023/06/20 11:48:18;;;;;;;11.00;9.90;;;34.50;99.90;;;;;;4977549;28;20239;-87
2023/06/20 11:50:54;;;;;;;10.70;9.30;;;34.50;99.90;;;;;;4996716;28;20220;-83
2023/06/20 11:53:24;;;;;;;8.18;7.43;;;34.40;99.90;;;;;;4996607;28;20199;-89
2023/06/20 11:55:53;;;;;;;7.70;7.00;;;34.30;99.90;;;;;;4977955;28;20283;-92
2023/06/20 11:58:22;;;;;;;7.40;6.80;;;34.30;99.90;;;;;;4977337;28;20295;-89
2023/06/20 12:01:02;;;;;;;7.30;6.10;;;34.30;99.90;;;;;;4976594;28;20216;-88
2023/06/20 12:03:29;;;;;;;6.57;5.97;;;34.50;99.90;;;;;;4976918;28;20251;-91
2023/06/20 12:05:57;;;;;;;7.85;5.82;;;34.70;99.90;;;;;;4991186;28;20510;-88
2023/06/20 12:08:25;;;;;;;9.02;5.47;;;34.80;99.90;;;;;;4995608;28;20628;-88
2023/06/20 12:11:00;;;;;;;5.93;4.85;;;34.60;99.90;;;;;;4976999;28;20515;-90
2023/06/20 12:13:29;;;;;;;7.00;5.45;;;34.80;99.90;;;;;;4978441;28;20355;-85
2023/06/20 12:15:57;;;;;;;5.20;4.70;;;34.30;99.90;;;;;;4995718;28;20605;-86
2023/06/20 12:18:24;;;;;;;4.93;4.47;;;34.20;99.90;;;;;;4995665;28;20487;-87
2023/06/20 12:20:51;;;;;;;5.22;4.72;;;34.30;99.90;;;;;;4995770;28;20228;-84
2023/06/20 12:23:19;;;;;;;5.00;4.60;;;34.00;99.90;;;;;;4996160;28;20304;-85
2023/06/20 12:25:46;;;;;;;5.05;4.55;;;33.60;99.90;;;;;;4996000;28;20239;-87
2023/06/20 12:28:13;;;;;;;5.22;4.82;;;33.40;99.90;;;;;;4996570;28;20224;-85
2023/06/20 12:30:41;;;;;;;6.57;5.40;;;33.60;99.90;;;;;;4996400;28;20635;-86
2023/06/20 12:33:10;;;;;;;5.45;4.93;;;33.80;99.90;;;;;;4996357;28;20220;-84
2023/06/20 12:35:38;;;;;;;6.15;4.82;;;33.80;99.90;;;;;;4995929;28;20216;-86
2023/06/20 12:38:05;;;;;;;5.30;4.90;;;33.50;99.90;;;;;;4996043;28;20294;-86
2023/06/20 12:40:32;;;;;;;5.22;4.82;;;33.30;99.90;;;;;;4996290;28;20999;-85
2023/06/20 12:42:58;;;;;;;5.18;4.75;;;33.40;99.90;;;;;;5005039;28;20312;-88
2023/06/20 12:45:28;;;;;;;6.72;5.78;;;33.40;99.90;;;;;;5016257;28;20196;-91
2023/06/20 12:47:56;;;;;;;6.68;5.30;;;33.50;99.90;;;;;;5015392;28;20212;-84
2023/06/20 12:50:23;;;;;;;6.25;5.38;;;33.70;99.90;;;;;;5010516;28;20222;-85